Time;durP1;ratioP1;P1;durP2;ratioP2;P2;SDS_P1;SDS_P2;PMS_P1;PMS_P2;Temp;Humidity;BMP_temperature;BMP_pressure;BME280_temperature;BME280_humidity;BME280_pressure;Samples;Min_cycle;Max_cycle;Signal;HPM_P1;HPM_P2
2021/06/30 00:00:14;;;;;;;21.83;12.32;;;;;;;14.56;100.00;101169.69;5224760;28;20174;-84
2021/06/30 00:02:44;;;;;;;20.00;11.70;;;;;;;14.50;100.00;101175.81;5231168;28;20028;-84
2021/06/30 00:05:15;;;;;;;24.30;12.95;;;;;;;14.44;100.00;101179.22;5230201;28;20387;-84
2021/06/30 00:07:46;;;;;;;18.23;9.57;;;;;;;14.45;100.00;101172.78;5231513;28;20025;-85
2021/06/30 00:10:18;;;;;;;14.95;9.63;;;;;;;14.37;100.00;101164.78;5226858;28;20036;-84
2021/06/30 00:12:48;;;;;;;17.13;9.43;;;;;;;14.25;100.00;101169.78;5230763;28;20024;-85
2021/06/30 00:15:24;;;;;;;15.45;9.45;;;;;;;14.20;100.00;101166.78;5224315;28;20017;-85
2021/06/30 00:17:55;;;;;;;15.85;8.88;;;;;;;14.23;100.00;101177.22;5224230;28;20073;-85
2021/06/30 00:20:25;;;;;;;18.80;9.45;;;;;;;14.22;100.00;101171.00;5224533;28;20051;-85
2021/06/30 00:22:56;;;;;;;16.27;8.23;;;;;;;14.23;100.00;101171.81;5237576;28;20093;-84
2021/06/30 00:25:26;;;;;;;12.30;7.70;;;;;;;14.15;100.00;101175.41;5230063;28;20020;-84
2021/06/30 00:27:57;;;;;;;17.52;9.40;;;;;;;14.12;100.00;101177.66;5231060;28;20029;-85
2021/06/30 00:30:27;;;;;;;14.18;8.38;;;;;;;14.19;100.00;101168.66;5244416;28;20070;-84
2021/06/30 00:32:58;;;;;;;19.77;9.23;;;;;;;14.15;100.00;101178.13;5231016;28;20407;-85
2021/06/30 00:35:28;;;;;;;12.73;8.40;;;;;;;14.19;100.00;101173.22;5232986;28;20115;-84
2021/06/30 00:37:59;;;;;;;18.23;9.00;;;;;;;14.11;100.00;101173.28;5229343;28;20052;-84
2021/06/30 00:40:30;;;;;;;16.65;8.73;;;;;;;14.12;100.00;101183.06;5230992;28;20025;-83
2021/06/30 00:43:01;;;;;;;22.70;9.05;;;;;;;14.01;100.00;101184.34;5224181;28;20024;-84
2021/06/30 00:45:31;;;;;;;17.95;7.57;;;;;;;14.02;100.00;101183.31;5229062;28;20120;-84
2021/06/30 00:48:02;;;;;;;11.15;5.78;;;;;;;13.95;100.00;101174.25;5231402;28;20025;-84
2021/06/30 00:50:32;;;;;;;10.20;5.93;;;;;;;13.91;100.00;101172.94;5227425;28;20043;-84
2021/06/30 00:53:03;;;;;;;10.50;6.20;;;;;;;13.92;100.00;101170.06;5237321;28;20112;-84
2021/06/30 00:55:33;;;;;;;21.33;6.50;;;;;;;13.88;100.00;101176.81;5222978;28;20017;-84
2021/06/30 00:58:05;;;;;;;13.48;7.40;;;;;;;13.87;100.00;101167.06;5224886;28;20525;-84
2021/06/30 01:00:35;;;;;;;15.25;6.75;;;;;;;13.87;100.00;101168.94;5207638;28;20104;-84
2021/06/30 01:03:08;;;;;;;12.27;7.28;;;;;;;13.79;100.00;101172.50;5222987;28;20097;-84
2021/06/30 01:05:39;;;;;;;9.65;5.78;;;;;;;13.83;100.00;101170.28;5234976;28;20103;-84
2021/06/30 01:08:09;;;;;;;11.98;6.63;;;;;;;13.71;100.00;101173.41;5224842;28;20112;-84
2021/06/30 01:10:40;;;;;;;11.30;6.40;;;;;;;13.71;100.00;101175.28;5231138;28;20046;-84
2021/06/30 01:13:19;;;;;;;9.63;5.75;;;;;;;13.69;100.00;101175.44;5227042;28;20032;-84
2021/06/30 01:15:55;;;;;;;9.63;5.95;;;;;;;13.68;100.00;101176.47;5223692;28;20033;-84
2021/06/30 01:18:29;;;;;;;9.65;5.78;;;;;;;13.68;100.00;101170.22;5230665;28;20115;-84
2021/06/30 01:21:07;;;;;;;11.38;6.25;;;;;;;13.62;100.00;101168.25;5226508;28;20314;-84
2021/06/30 01:23:39;;;;;;;9.70;5.13;;;;;;;13.58;100.00;101177.72;5226951;28;20021;-84
2021/06/30 01:26:11;;;;;;;19.67;7.40;;;;;;;13.54;100.00;101177.22;5229912;28;20037;-84
2021/06/30 01:28:42;;;;;;;11.88;5.70;;;;;;;13.44;100.00;101173.91;5225225;28;20033;-84
2021/06/30 01:31:13;;;;;;;12.23;5.35;;;;;;;13.43;100.00;101164.97;5225992;28;20365;-84
2021/06/30 01:33:44;;;;;;;9.70;5.72;;;;;;;13.35;100.00;101175.78;5224626;28;20476;-84
2021/06/30 01:36:14;;;;;;;10.32;5.72;;;;;;;13.33;100.00;101182.41;5236284;28;20031;-84
2021/06/30 01:38:45;;;;;;;9.23;5.30;;;;;;;13.38;100.00;101178.16;5222461;28;20465;-84
2021/06/30 01:41:16;;;;;;;8.88;4.53;;;;;;;13.39;100.00;101179.81;5223026;28;20103;-84
2021/06/30 01:43:47;;;;;;;8.10;4.70;;;;;;;13.37;100.00;101176.47;5222892;28;20024;-84
2021/06/30 01:46:17;;;;;;;10.55;4.95;;;;;;;13.46;100.00;101185.38;5226708;28;20039;-84
2021/06/30 01:48:48;;;;;;;13.85;6.18;;;;;;;13.42;100.00;101182.19;5227426;28;20480;-84
2021/06/30 01:51:19;;;;;;;11.60;5.72;;;;;;;13.49;100.00;101187.69;5231512;28;20020;-84
2021/06/30 01:53:54;;;;;;;9.90;6.05;;;;;;;13.43;100.00;101186.53;5217405;28;20505;-84
2021/06/30 01:56:26;;;;;;;15.05;6.90;;;;;;;13.39;100.00;101187.91;5230701;28;20338;-83
2021/06/30 01:59:00;;;;;;;13.80;7.53;;;;;;;13.36;100.00;101184.75;5223004;28;20392;-84
2021/06/30 02:01:32;;;;;;;14.53;8.50;;;;;;;13.33;100.00;101185.09;5222620;28;20020;-84
2021/06/30 02:04:03;;;;;;;18.35;10.20;;;;;;;13.32;100.00;101181.56;5233361;28;20482;-84
2021/06/30 02:06:39;;;;;;;22.70;11.18;;;;;;;13.34;100.00;101176.81;5236272;28;20024;-84
2021/06/30 02:09:12;;;;;;;24.52;12.55;;;;;;;13.35;100.00;101177.66;5239153;28;20031;-84
2021/06/30 02:11:43;;;;;;;21.65;12.32;;;;;;;13.30;100.00;101177.34;5234274;28;20032;-84
2021/06/30 02:14:22;;;;;;;31.83;12.75;;;;;;;13.23;100.00;101179.91;5226626;28;20029;-84
2021/06/30 02:16:53;;;;;;;26.77;14.00;;;;;;;13.34;100.00;101175.97;5227576;28;20163;-84
2021/06/30 02:19:23;;;;;;;26.75;13.98;;;;;;;13.38;100.00;101182.72;5239334;28;20544;-84
2021/06/30 02:21:54;;;;;;;31.33;13.90;;;;;;;13.33;100.00;101179.69;5235282;28;20021;-85
2021/06/30 02:24:24;;;;;;;29.17;14.30;;;;;;;13.44;100.00;101177.44;5228461;28;20077;-84
2021/06/30 02:26:55;;;;;;;28.30;15.32;;;;;;;13.42;100.00;101190.25;5229125;28;20036;-84
2021/06/30 02:29:25;;;;;;;23.38;13.20;;;;;;;13.44;100.00;101182.00;5228206;28;20021;-84
2021/06/30 02:31:56;;;;;;;24.33;12.05;;;;;;;13.48;100.00;101178.78;5229026;28;20112;-84
2021/06/30 02:34:26;;;;;;;24.00;13.30;;;;;;;13.37;100.00;101181.88;5236852;28;20052;-84
2021/06/30 02:36:57;;;;;;;20.58;11.32;;;;;;;13.37;100.00;101181.88;5228702;28;20033;-84
2021/06/30 02:39:27;;;;;;;22.05;11.40;;;;;;;13.37;100.00;101191.81;5236006;28;20460;-84
2021/06/30 02:41:58;;;;;;;24.63;12.68;;;;;;;13.37;100.00;101184.56;5229039;28;20016;-84
2021/06/30 02:44:29;;;;;;;23.85;11.88;;;;;;;13.39;100.00;101189.75;5228949;28;20120;-84
2021/06/30 02:46:59;;;;;;;24.77;13.07;;;;;;;13.33;100.00;101193.16;5240364;28;20021;-84
2021/06/30 02:49:30;;;;;;;20.88;12.13;;;;;;;13.34;100.00;101194.84;5238364;28;20112;-84
2021/06/30 02:52:00;;;;;;;18.52;10.57;;;;;;;13.26;100.00;101195.75;5226650;28;20028;-85
2021/06/30 02:54:31;;;;;;;20.15;9.38;;;;;;;13.21;100.00;101184.63;5226057;28;20031;-84
2021/06/30 02:57:02;;;;;;;17.95;9.18;;;;;;;13.16;100.00;101195.91;5240432;28;20086;-85
2021/06/30 02:59:33;;;;;;;18.05;9.55;;;;;;;13.10;100.00;101182.28;5233884;28;20025;-85
2021/06/30 03:02:03;;;;;;;19.58;9.82;;;;;;;12.96;100.00;101190.09;5231589;28;20230;-85
2021/06/30 03:04:34;;;;;;;17.67;9.13;;;;;;;12.93;100.00;101187.75;5235893;28;20064;-85
2021/06/30 03:07:04;;;;;;;17.75;8.95;;;;;;;12.89;100.00;101189.09;5243896;28;20040;-85
2021/06/30 03:09:35;;;;;;;18.15;9.90;;;;;;;12.87;100.00;101188.44;5225235;28;20029;-84
2021/06/30 03:12:06;;;;;;;17.73;9.90;;;;;;;12.88;100.00;101186.59;5232450;28;20025;-84
2021/06/30 03:14:36;;;;;;;18.90;8.50;;;;;;;12.89;100.00;101180.19;5230539;28;20056;-84
2021/06/30 03:17:06;;;;;;;15.60;9.15;;;;;;;12.86;100.00;101194.84;5233738;28;20056;-84
2021/06/30 03:19:37;;;;;;;16.08;9.55;;;;;;;12.85;100.00;101192.28;5231532;28;20051;-84
2021/06/30 03:22:08;;;;;;;21.30;10.45;;;;;;;12.81;100.00;101185.59;5226008;28;20123;-84
2021/06/30 03:24:38;;;;;;;15.25;9.15;;;;;;;12.83;100.00;101189.78;5234112;28;20025;-84
2021/06/30 03:27:08;;;;;;;18.92;9.65;;;;;;;12.79;100.00;101188.44;5238806;28;20049;-84
2021/06/30 03:29:39;;;;;;;16.30;9.38;;;;;;;12.76;100.00;101190.66;5233908;28;20063;-84
2021/06/30 03:32:09;;;;;;;16.83;9.30;;;;;;;12.76;100.00;101196.88;5236737;28;20107;-84
2021/06/30 03:34:40;;;;;;;20.13;10.45;;;;;;;12.75;100.00;101197.91;5229204;28;20083;-84
2021/06/30 03:37:10;;;;;;;20.30;10.68;;;;;;;12.75;100.00;101200.59;5224759;28;20021;-84
2021/06/30 03:39:41;;;;;;;25.75;11.27;;;;;;;12.72;100.00;101192.00;5234059;28;20021;-84
2021/06/30 03:42:11;;;;;;;19.42;10.02;;;;;;;12.68;100.00;101192.34;5241780;28;20028;-84
2021/06/30 03:44:42;;;;;;;24.02;10.95;;;;;;;12.72;100.00;101200.94;5235622;28;20048;-83
2021/06/30 03:47:12;;;;;;;22.75;10.48;;;;;;;12.72;100.00;101203.63;5226120;28;20109;-84
2021/06/30 03:49:43;;;;;;;18.90;10.05;;;;;;;12.69;100.00;101199.41;5226515;28;20032;-84
2021/06/30 03:52:13;;;;;;;22.73;10.50;;;;;;;12.67;100.00;101200.59;5223664;28;20055;-84
2021/06/30 03:54:44;;;;;;;20.90;10.55;;;;;;;12.59;100.00;101198.75;5236844;28;20104;-84
2021/06/30 03:57:14;;;;;;;25.02;11.68;;;;;;;12.60;100.00;101195.06;5236239;28;20391;-84
2021/06/30 03:59:45;;;;;;;25.83;11.35;;;;;;;12.54;100.00;101203.81;5254318;28;20035;-84
2021/06/30 04:02:15;;;;;;;19.83;10.73;;;;;;;12.55;100.00;101199.25;5258326;28;20234;-84
2021/06/30 04:04:45;;;;;;;20.55;10.05;;;;;;;12.60;100.00;101204.97;5228840;28;20442;-84
2021/06/30 04:07:16;;;;;;;22.58;10.75;;;;;;;12.55;100.00;101201.94;5232059;28;20399;-84
2021/06/30 04:09:46;;;;;;;21.80;9.52;;;;;;;12.56;100.00;101200.97;5245852;28;20021;-84
2021/06/30 04:12:17;;;;;;;24.02;10.07;;;;;;;12.49;100.00;101197.25;5226940;28;20107;-84
2021/06/30 04:14:48;;;;;;;18.00;9.05;;;;;;;12.54;100.00;101194.91;5247047;28;20080;-84
2021/06/30 04:17:18;;;;;;;16.80;8.80;;;;;;;12.54;100.00;101193.03;5245533;28;20081;-84
2021/06/30 04:19:48;;;;;;;17.63;7.93;;;;;;;12.59;100.00;101198.75;5239058;28;20089;-84
2021/06/30 04:22:20;;;;;;;18.63;8.52;;;;;;;12.57;100.00;101198.09;5247382;28;20054;-84
2021/06/30 04:24:50;;;;;;;18.25;9.05;;;;;;;12.62;100.00;101198.41;5239625;28;20081;-84
2021/06/30 04:27:21;;;;;;;17.77;9.25;;;;;;;12.57;100.00;101195.41;5236639;28;20021;-84
2021/06/30 04:29:51;;;;;;;17.58;8.80;;;;;;;12.55;100.00;101199.25;5239837;28;20316;-84
2021/06/30 04:32:22;;;;;;;17.45;8.85;;;;;;;12.63;100.00;101204.63;5234065;28;20422;-84
2021/06/30 04:34:52;;;;;;;19.05;9.27;;;;;;;12.58;100.00;101210.53;5224497;28;20396;-84
2021/06/30 04:37:23;;;;;;;21.23;9.40;;;;;;;12.56;100.00;101204.50;5234309;28;20043;-84
2021/06/30 04:39:53;;;;;;;22.83;9.20;;;;;;;12.57;100.00;101197.25;5224736;28;20427;-84
2021/06/30 04:42:24;;;;;;;23.80;10.48;;;;;;;12.61;100.00;101199.44;5242367;28;20021;-84
2021/06/30 04:44:54;;;;;;;20.27;10.38;;;;;;;12.67;100.00;101208.69;5242177;28;20033;-84
2021/06/30 04:47:24;;;;;;;26.25;11.48;;;;;;;12.62;100.00;101206.50;5228538;28;20021;-84
2021/06/30 04:49:55;;;;;;;24.65;11.23;;;;;;;12.61;100.00;101209.38;5236947;28;20083;-84
2021/06/30 04:52:25;;;;;;;23.35;11.32;;;;;;;12.63;100.00;101215.41;5237081;28;20496;-84
2021/06/30 04:54:56;;;;;;;28.02;11.80;;;;;;;12.66;100.00;101221.31;5237958;28;20024;-84
2021/06/30 04:57:26;;;;;;;21.05;10.10;;;;;;;12.71;100.00;101220.78;5232501;28;20396;-84
2021/06/30 04:59:57;;;;;;;19.27;10.00;;;;;;;12.75;100.00;101219.44;5228782;28;20093;-84
2021/06/30 05:02:27;;;;;;;22.02;10.88;;;;;;;12.76;100.00;101210.34;5241528;28;20024;-84
2021/06/30 05:04:58;;;;;;;19.63;9.68;;;;;;;12.72;100.00;101214.38;5234648;28;20029;-84
2021/06/30 05:07:28;;;;;;;20.95;10.30;;;;;;;12.72;100.00;101218.94;5234386;28;20020;-84
2021/06/30 05:09:59;;;;;;;18.85;9.27;;;;;;;12.73;100.00;101220.59;5233455;28;20108;-85
2021/06/30 05:12:29;;;;;;;19.00;9.27;;;;;;;12.77;100.00;101227.34;5235130;28;20472;-84
2021/06/30 05:15:00;;;;;;;19.90;8.80;;;;;;;12.81;100.00;101224.13;5233208;28;20029;-84
2021/06/30 05:17:30;;;;;;;17.20;8.95;;;;;;;12.75;100.00;101219.44;5236789;28;20052;-84
2021/06/30 05:20:01;;;;;;;17.80;8.98;;;;;;;12.77;100.00;101225.47;5242175;28;20052;-84
2021/06/30 05:22:31;;;;;;;21.02;10.40;;;;;;;12.79;100.00;101214.53;5235829;28;20408;-84
2021/06/30 05:25:02;;;;;;;17.33;8.57;;;;;;;12.83;100.00;101219.41;5232070;28;20024;-84
2021/06/30 05:27:33;;;;;;;18.17;8.85;;;;;;;12.86;100.00;101227.16;5227917;28;20024;-84
2021/06/30 05:30:04;;;;;;;13.25;7.75;;;;;;;12.79;100.00;101226.13;5229243;28;20476;-85
2021/06/30 05:32:35;;;;;;;16.42;7.88;;;;;;;12.86;100.00;101229.84;5234673;28;20020;-84
2021/06/30 05:35:06;;;;;;;16.63;7.35;;;;;;;12.84;100.00;101229.16;5229121;28;20047;-84
2021/06/30 05:37:38;;;;;;;14.90;7.30;;;;;;;12.87;100.00;101218.06;5244051;28;20032;-83
2021/06/30 05:40:09;;;;;;;12.23;7.13;;;;;;;12.84;100.00;101214.84;5236971;28;20013;-84
2021/06/30 05:42:41;;;;;;;14.68;7.85;;;;;;;12.83;100.00;101221.25;5223085;28;20025;-84
2021/06/30 05:45:17;;;;;;;12.70;6.55;;;;;;;12.81;100.00;101218.75;5223003;28;20024;-83
2021/06/30 05:47:48;;;;;;;14.40;6.97;;;;;;;12.85;100.00;101219.22;5227426;28;20454;-83
2021/06/30 05:50:20;;;;;;;18.05;7.65;;;;;;;12.86;100.00;101213.69;5227614;28;20026;-84
2021/06/30 05:52:51;;;;;;;15.48;6.72;;;;;;;12.84;100.00;101218.38;5222899;28;20033;-84
2021/06/30 05:55:22;;;;;;;16.77;7.22;;;;;;;12.88;100.00;101213.50;5232312;28;20016;-84
2021/06/30 05:57:53;;;;;;;18.83;7.90;;;;;;;12.80;100.00;101210.81;5227404;28;20384;-84
2021/06/30 06:00:24;;;;;;;14.90;8.20;;;;;;;12.74;100.00;101209.66;5227467;28;20021;-84
2021/06/30 06:02:54;;;;;;;17.80;9.20;;;;;;;12.72;100.00;101210.84;5225068;28;20082;-84
2021/06/30 06:05:25;;;;;;;18.35;7.82;;;;;;;12.77;100.00;101221.94;5234859;28;20040;-84
2021/06/30 06:07:55;;;;;;;18.67;8.82;;;;;;;12.79;100.00;101219.91;5229747;28;20021;-84
2021/06/30 06:10:26;;;;;;;17.05;8.75;;;;;;;12.80;100.00;101216.22;5223760;28;20021;-84
2021/06/30 06:12:56;;;;;;;22.60;10.07;;;;;;;12.84;100.00;101222.94;5232513;28;20040;-85
2021/06/30 06:15:27;;;;;;;21.45;9.77;;;;;;;12.91;100.00;101219.41;5231211;28;20091;-85
2021/06/30 06:17:57;;;;;;;24.88;10.93;;;;;;;12.85;100.00;101220.09;5232711;28;20029;-85
2021/06/30 06:20:28;;;;;;;23.42;10.80;;;;;;;12.84;100.00;101212.16;5227496;28;20024;-84
2021/06/30 06:22:58;;;;;;;25.67;11.43;;;;;;;12.91;100.00;101214.00;5227819;28;20047;-84
2021/06/30 06:25:28;;;;;;;21.17;10.73;;;;;;;12.95;100.00;101211.78;5222700;28;20025;-85
2021/06/30 06:27:59;;;;;;;23.55;11.68;;;;;;;12.93;100.00;101211.97;5223040;28;20086;-84
2021/06/30 06:30:30;;;;;;;26.95;11.85;;;;;;;12.98;100.00;101219.53;5235875;28;20023;-84
2021/06/30 06:33:00;;;;;;;24.90;11.00;;;;;;;13.03;100.00;101210.94;5229615;28;20082;-84
2021/06/30 06:35:31;;;;;;;21.52;11.20;;;;;;;13.06;100.00;101211.44;5223997;28;20384;-83
2021/06/30 06:38:01;;;;;;;20.38;10.85;;;;;;;12.99;100.00;101207.75;5229869;28;20029;-83
2021/06/30 06:40:32;;;;;;;17.63;9.05;;;;;;;12.95;100.00;101209.97;5228108;28;20032;-83
2021/06/30 06:43:02;;;;;;;19.70;9.68;;;;;;;13.01;100.00;101216.50;5222520;28;20039;-83
2021/06/30 06:45:33;;;;;;;14.52;7.88;;;;;;;12.95;100.00;101218.03;5222896;28;20060;-82
2021/06/30 06:48:05;;;;;;;13.18;6.72;;;;;;;12.83;100.00;101216.72;5224804;28;20025;-83
2021/06/30 06:50:35;;;;;;;13.20;6.25;;;;;;;12.81;100.00;101215.22;5223159;28;20041;-83
2021/06/30 06:53:06;;;;;;;12.75;6.70;;;;;;;12.80;100.00;101218.91;5226652;28;20343;-84
2021/06/30 06:55:36;;;;;;;10.18;5.60;;;;;;;12.73;100.00;101210.69;5230201;28;20353;-84
2021/06/30 06:58:08;;;;;;;12.23;6.45;;;;;;;12.75;100.00;101218.56;5230010;28;20484;-84
2021/06/30 07:00:39;;;;;;;15.07;7.18;;;;;;;12.75;100.00;101215.88;5230055;28;20399;-84
2021/06/30 07:03:09;;;;;;;14.48;6.80;;;;;;;12.81;100.00;101224.13;5239794;28;20028;-84
2021/06/30 07:05:40;;;;;;;13.63;7.47;;;;;;;12.88;100.00;101226.97;5240038;28;20031;-84
2021/06/30 07:08:10;;;;;;;12.98;7.13;;;;;;;12.94;100.00;101226.28;5231175;28;20024;-83
2021/06/30 07:10:41;;;;;;;16.70;7.10;;;;;;;13.13;100.00;101228.56;5227855;28;20499;-83
2021/06/30 07:13:12;;;;;;;16.30;8.20;;;;;;;13.19;100.00;101227.03;5236209;28;20078;-84
2021/06/30 07:15:43;;;;;;;14.70;8.02;;;;;;;13.37;100.00;101229.53;5230043;28;20029;-84
2021/06/30 07:18:17;;;;;;;19.42;8.35;;;;;;;13.51;100.00;101230.66;5228814;28;20032;-84
2021/06/30 07:20:47;;;;;;;13.43;8.60;;;;;;;13.55;100.00;101240.06;5233420;28;20016;-84
2021/06/30 07:23:18;;;;;;;15.05;8.80;;;;;;;13.52;100.00;101235.88;5229538;28;20074;-84
2021/06/30 07:25:50;;;;;;;19.23;9.35;;;;;;;13.36;100.00;101239.47;5227151;28;20029;-84
2021/06/30 07:28:21;;;;;;;19.95;8.93;;;;;;;13.27;100.00;101250.47;5233883;28;20028;-84
2021/06/30 07:30:52;;;;;;;16.38;7.47;;;;;;;13.37;100.00;101251.94;5240875;28;20029;-84
2021/06/30 07:33:22;;;;;;;14.75;8.07;;;;;;;13.33;100.00;101253.28;5238220;28;20029;-84
2021/06/30 07:35:53;;;;;;;17.80;8.77;;;;;;;13.36;100.00;101252.97;5240174;28;20025;-84
2021/06/30 07:38:23;;;;;;;15.70;8.57;;;;;;;13.44;100.00;101257.44;5236798;28;20217;-84
2021/06/30 07:40:54;;;;;;;15.07;8.05;;;;;;;13.52;100.00;101251.19;5231147;28;20493;-84
2021/06/30 07:43:24;;;;;;;15.95;7.25;;;;;;;13.62;100.00;101243.75;5232954;28;20020;-84
2021/06/30 07:45:55;;;;;;;17.45;8.07;;;;;;;13.68;100.00;101253.81;5244406;28;20028;-84
2021/06/30 07:48:25;;;;;;;15.40;7.70;;;;;;;13.74;100.00;101251.22;5244250;28;20124;-84
2021/06/30 07:50:56;;;;;;;17.45;9.55;;;;;;;13.76;100.00;101256.47;5232849;28;20055;-84
2021/06/30 07:53:26;;;;;;;20.00;9.23;;;;;;;13.77;100.00;101257.31;5238407;28;20024;-84
2021/06/30 07:55:57;;;;;;;20.17;8.82;;;;;;;13.87;100.00;101255.22;5225289;28;20023;-84
2021/06/30 07:58:27;;;;;;;23.00;11.98;;;;;;;13.85;100.00;101254.53;5239952;28;20034;-84
2021/06/30 08:00:58;;;;;;;29.30;11.35;;;;;;;13.90;100.00;101252.16;5244487;28;20016;-84
2021/06/30 08:03:28;;;;;;;26.35;12.85;;;;;;;14.08;100.00;101251.88;5242961;28;20646;-84
2021/06/30 08:05:59;;;;;;;24.98;12.32;;;;;;;14.17;100.00;101242.72;5234022;28;20025;-84
2021/06/30 08:08:29;;;;;;;22.90;11.80;;;;;;;14.17;100.00;101256.22;5242866;28;20083;-84
2021/06/30 08:10:59;;;;;;;25.25;11.60;;;;;;;14.33;100.00;101250.69;5244837;28;20031;-84
2021/06/30 08:13:30;;;;;;;24.60;12.50;;;;;;;14.35;100.00;101245.09;5244107;28;20132;-84
2021/06/30 08:16:00;;;;;;;19.88;11.93;;;;;;;14.28;100.00;101253.09;5243583;28;20025;-84
2021/06/30 08:18:31;;;;;;;24.20;10.88;;;;;;;14.27;100.00;101251.41;5245222;28;20391;-84
2021/06/30 08:21:01;;;;;;;27.25;11.27;;;;;;;14.33;100.00;101258.78;5242127;28;20024;-84
2021/06/30 08:23:32;;;;;;;21.58;11.07;;;;;;;14.34;100.00;101255.03;5225721;28;20252;-84
2021/06/30 08:26:02;;;;;;;20.83;11.43;;;;;;;14.31;100.00;101258.13;5234223;28;20017;-83
2021/06/30 08:28:33;;;;;;;20.10;11.85;;;;;;;14.22;100.00;101253.81;5231216;28;20384;-83
2021/06/30 08:31:04;;;;;;;21.05;11.85;;;;;;;14.27;100.00;101254.09;5233104;28;20024;-83
2021/06/30 08:33:35;;;;;;;22.88;11.07;;;;;;;14.27;100.00;101261.38;5242600;28;20025;-83
2021/06/30 08:36:05;;;;;;;20.92;11.48;;;;;;;14.12;100.00;101264.00;5226990;28;20028;-83
2021/06/30 08:38:36;;;;;;;19.50;9.77;;;;;;;14.11;100.00;101265.88;5228361;28;20028;-83
2021/06/30 08:41:06;;;;;;;17.48;10.50;;;;;;;14.21;100.00;101269.16;5225969;28;20025;-84
2021/06/30 08:43:37;;;;;;;17.58;10.57;;;;;;;14.31;100.00;101255.44;5223584;28;20031;-84
2021/06/30 08:46:08;;;;;;;21.63;11.73;;;;;;;14.33;100.00;101263.34;5223796;28;20028;-84
2021/06/30 08:48:40;;;;;;;22.48;11.55;;;;;;;14.35;100.00;101264.81;5227119;28;20112;-84
2021/06/30 08:51:14;;;;;;;15.50;10.38;;;;;;;14.52;100.00;101260.19;5227362;28;20078;-84
2021/06/30 08:53:46;;;;;;;21.15;11.30;;;;;;;14.47;100.00;101262.56;5223594;28;20107;-83
2021/06/30 08:56:19;;;;;;;21.00;10.00;;;;;;;14.54;100.00;101260.00;5233571;28;20021;-84
2021/06/30 08:58:50;;;;;;;21.75;11.10;;;;;;;14.58;100.00;101262.16;5239861;28;20356;-84
2021/06/30 09:01:21;;;;;;;18.45;9.85;;;;;;;14.82;100.00;101262.94;5230498;28;20016;-84
2021/06/30 09:03:54;;;;;;;21.65;10.90;;;;;;;14.86;100.00;101266.94;5238767;28;20418;-84
2021/06/30 09:06:26;;;;;;;22.90;11.38;;;;;;;14.93;100.00;101268.72;5241125;28;20107;-84
2021/06/30 09:09:00;;;;;;;19.83;9.52;;;;;;;15.00;100.00;101274.22;5236483;28;20028;-82
2021/06/30 09:11:31;;;;;;;22.85;11.20;;;;;;;15.05;100.00;101282.63;5238915;28;20052;-83
2021/06/30 09:14:16;;;;;;;19.65;10.18;;;;;;;14.88;100.00;101271.13;5235076;28;20025;-84
2021/06/30 09:17:00;;;;;;;17.17;9.27;;;;;;;14.97;100.00;101272.75;5233200;28;20053;-84
2021/06/30 09:19:46;;;;;;;20.00;9.05;;;;;;;15.11;100.00;101272.91;5231747;28;20025;-84
2021/06/30 09:22:18;;;;;;;17.48;8.57;;;;;;;15.07;100.00;101267.06;5224849;28;20116;-84
2021/06/30 09:24:49;;;;;;;23.70;9.77;;;;;;;15.19;100.00;101270.13;5234586;28;20480;-84
2021/06/30 09:27:36;;;;;;;20.23;10.00;;;;;;;15.27;100.00;101270.91;5226265;28;20086;-84
2021/06/30 09:30:10;;;;;;;20.67;9.02;;;;;;;15.45;100.00;101269.66;5234300;28;20056;-84
2021/06/30 09:33:04;;;;;;;17.98;9.85;;;;;;;15.32;100.00;101269.50;5229992;28;20028;-84
2021/06/30 09:35:35;;;;;;;16.10;9.82;;;;;;;15.59;100.00;101274.22;5226732;28;20361;-84
2021/06/30 09:38:29;;;;;;;17.15;10.23;;;;;;;15.63;100.00;101274.69;5226910;28;20028;-84
2021/06/30 09:41:00;;;;;;;17.83;10.55;;;;;;;15.60;100.00;101273.19;5222384;28;20036;-83
2021/06/30 09:43:33;;;;;;;21.92;10.95;;;;;;;15.60;100.00;101283.16;5233859;28;20020;-84
2021/06/30 09:46:18;;;;;;;20.23;10.45;;;;;;;15.63;100.00;101280.97;5236319;28;20071;-83
2021/06/30 09:48:56;;;;;;;19.13;9.27;;;;;;;15.69;100.00;101279.38;5231338;28;20488;-83
2021/06/30 09:51:27;;;;;;;16.75;10.05;;;;;;;15.58;100.00;101277.94;5231255;28;20029;-84
2021/06/30 09:54:10;;;;;;;19.48;10.80;;;;;;;15.63;100.00;101278.25;5222846;28;20024;-83
2021/06/30 09:56:54;;;;;;;18.48;9.35;;;;;;;15.59;100.00;101273.38;5232570;28;20078;-84
2021/06/30 09:59:27;;;;;;;13.68;8.50;;;;;;;15.36;100.00;101268.06;5229895;28;20025;-83
2021/06/30 10:02:03;;;;;;;22.40;10.07;;;;;;;15.52;100.00;101276.00;5224595;28;20021;-84
2021/06/30 10:04:39;;;;;;;20.02;10.20;;;;;;;15.43;100.00;101275.25;5236553;28;20024;-83
2021/06/30 10:07:13;;;;;;;15.82;10.10;;;;;;;15.35;100.00;101275.34;5223959;28;20090;-84
2021/06/30 10:09:52;;;;;;;17.92;10.82;;;;;;;15.69;100.00;101285.59;5223391;28;20060;-84
2021/06/30 10:12:25;;;;;;;19.08;9.85;;;;;;;15.92;100.00;101281.94;5223546;28;20120;-84
2021/06/30 10:14:58;;;;;;;15.82;9.32;;;;;;;15.98;100.00;101281.16;5228770;28;20438;-84
2021/06/30 10:17:29;;;;;;;13.05;7.85;;;;;;;16.26;100.00;101279.38;5223487;28;20568;-83
2021/06/30 10:20:02;;;;;;;14.15;9.13;;;;;;;16.41;100.00;101282.00;5227180;28;20516;-84
2021/06/30 10:22:32;;;;;;;19.23;10.18;;;;;;;16.32;100.00;101283.19;5236441;28;20036;-84
2021/06/30 10:25:04;;;;;;;16.38;9.55;;;;;;;16.41;100.00;101292.00;5222747;28;20419;-84
2021/06/30 10:27:34;;;;;;;13.57;9.02;;;;;;;16.48;100.00;101298.34;5223808;28;20031;-83
2021/06/30 10:30:06;;;;;;;12.70;8.13;;;;;;;16.24;100.00;101296.84;5236202;28;20047;-83
2021/06/30 10:32:38;;;;;;;13.38;8.98;;;;;;;16.23;100.00;101290.59;5234422;28;20016;-84
2021/06/30 10:35:17;;;;;;;15.35;9.73;;;;;;;15.96;100.00;101291.31;5227538;28;20031;-84
2021/06/30 10:37:53;;;;;;;21.05;10.82;;;;;;;15.92;100.00;101303.59;5230775;28;20086;-83
2021/06/30 10:40:24;;;;;;;15.68;9.63;;;;;;;15.89;100.00;101298.53;5234220;28;20040;-84
2021/06/30 10:43:13;;;;;;;12.70;7.85;;;;;;;16.01;100.00;101297.00;5243642;28;20032;-83
2021/06/30 10:45:44;;;;;;;14.02;8.30;;;;;;;15.98;100.00;101292.00;5236165;28;20525;-83
2021/06/30 10:48:14;;;;;;;11.75;7.75;;;;;;;16.23;100.00;101289.75;5237923;28;20057;-84
2021/06/30 10:50:54;;;;;;;14.05;8.40;;;;;;;16.44;100.00;101289.75;5220174;28;20317;-83
2021/06/30 10:53:29;;;;;;;16.08;6.45;;;;;;;16.50;100.00;101293.56;5234008;28;20031;-84
2021/06/30 10:56:01;;;;;;;10.40;5.90;;;;;;;16.34;100.00;101296.53;5242093;28;20035;-83
2021/06/30 10:58:32;;;;;;;10.70;5.95;;;;;;;16.37;100.00;101299.69;5238110;28;20039;-83
2021/06/30 11:01:08;;;;;;;10.57;5.93;;;;;;;16.24;100.00;101303.09;5240006;28;20028;-83
2021/06/30 11:04:01;;;;;;;8.80;6.10;;;;;;;16.05;100.00;101295.59;5237693;28;20387;-84
2021/06/30 11:06:32;;;;;;;11.40;7.10;;;;;;;15.92;100.00;101300.88;5238451;28;20025;-84
2021/06/30 11:09:06;;;;;;;13.63;6.75;;;;;;;15.73;100.00;101305.84;5235304;28;20031;-84
2021/06/30 11:11:36;;;;;;;8.40;5.65;;;;;;;15.38;100.00;101307.44;5243820;28;20608;-83
2021/06/30 11:14:09;;;;;;;11.00;7.00;;;;;;;15.33;100.00;101306.31;5236643;28;20080;-83
2021/06/30 11:16:48;;;;;;;10.27;5.65;;;;;;;15.39;100.00;101300.16;5238608;28;20457;-84
2021/06/30 11:19:19;;;;;;;12.98;6.85;;;;;;;15.66;100.00;101304.94;5233847;28;20065;-83
2021/06/30 11:22:03;;;;;;;11.23;6.38;;;;;;;15.72;100.00;101298.75;5240343;28;20354;-84
2021/06/30 11:27:07;;;;;;;9.95;5.97;;;;;;;16.11;100.00;101302.09;5241766;28;20621;-83
2021/06/30 11:29:40;;;;;;;8.57;5.22;;;;;;;16.30;100.00;101306.91;5246851;28;20045;-83